Time;durP1;ratioP1;P1;durP2;ratioP2;P2;SDS_P1;SDS_P2;PMS_P1;PMS_P2;Temp;Humidity;BMP_temperature;BMP_pressure;BME280_temperature;BME280_humidity;BME280_pressure;Samples;Min_cycle;Max_cycle;Signal;HPM_P1;HPM_P2
2022/07/17 00:00:16;;;;;;;33.15;7.80;;;;;;;14.10;100.00;98788.94;5059461;28;20032;-60
2022/07/17 00:02:41;;;;;;;32.05;7.72;;;;;;;14.19;100.00;98799.91;5060314;28;20441;-61
2022/07/17 00:05:07;;;;;;;33.58;7.47;;;;;;;14.16;100.00;98793.94;5060523;28;20455;-58
2022/07/17 00:07:32;;;;;;;34.05;7.85;;;;;;;14.07;100.00;98790.78;5061677;28;20035;-61
2022/07/17 00:09:58;;;;;;;40.90;8.50;;;;;;;14.05;100.00;98792.59;5063815;28;20016;-60
2022/07/17 00:12:23;;;;;;;27.42;7.13;;;;;;;13.93;100.00;98793.16;5063777;28;20033;-60
2022/07/17 00:14:49;;;;;;;34.05;7.68;;;;;;;13.96;100.00;98795.63;5063971;28;20029;-61
2022/07/17 00:17:14;;;;;;;48.47;8.75;;;;;;;13.93;100.00;98797.53;5062792;28;20033;-61
2022/07/17 00:19:40;;;;;;;30.42;7.35;;;;;;;13.79;100.00;98805.97;5063705;28;20028;-59
2022/07/17 00:22:06;;;;;;;33.50;7.88;;;;;;;13.86;100.00;98812.69;5062859;28;20560;-58
2022/07/17 00:24:31;;;;;;;31.85;7.38;;;;;;;13.78;100.00;98805.09;5064383;28;20028;-60
2022/07/17 00:26:57;;;;;;;36.15;7.65;;;;;;;14.10;100.00;98812.53;5062308;28;20048;-58
2022/07/17 00:29:22;;;;;;;32.67;7.18;;;;;;;14.29;100.00;98813.47;5063115;28;20330;-59
2022/07/17 00:31:48;;;;;;;41.40;8.05;;;;;;;13.91;100.00;98817.72;5062193;28;20106;-58
2022/07/17 00:34:13;;;;;;;31.33;7.20;;;;;;;13.68;100.00;98820.38;5063938;28;20368;-58
2022/07/17 00:36:38;;;;;;;31.20;7.10;;;;;;;13.64;100.00;98824.03;5063750;28;20602;-61
2022/07/17 00:39:04;;;;;;;33.90;7.82;;;;;;;13.80;100.00;98812.91;5062196;28;20107;-59
2022/07/17 00:41:30;;;;;;;26.55;6.70;;;;;;;13.79;100.00;98819.09;5063472;28;20052;-59
2022/07/17 00:44:06;;;;;;;36.22;7.43;;;;;;;13.73;100.00;98828.06;5063038;28;20080;-59
2022/07/17 00:46:31;;;;;;;30.50;7.47;;;;;;;13.44;100.00;98834.47;5063509;28;20043;-59
2022/07/17 00:48:57;;;;;;;35.72;7.25;;;;;;;13.49;100.00;98832.50;5062625;28;20028;-59
2022/07/17 00:51:22;;;;;;;26.88;7.50;;;;;;;13.25;100.00;98832.53;5062450;28;20072;-61
2022/07/17 00:53:49;;;;;;;32.25;7.40;;;;;;;13.53;100.00;98831.47;5064278;28;20029;-60
2022/07/17 00:56:16;;;;;;;33.70;7.85;;;;;;;13.45;100.00;98828.28;5062694;28;20040;-60
2022/07/17 00:58:42;;;;;;;33.47;8.10;;;;;;;13.38;100.00;98832.06;5062701;28;20685;-59
2022/07/17 01:01:08;;;;;;;33.97;7.60;;;;;;;13.29;100.00;98822.78;5062166;28;20047;-61
2022/07/17 01:03:33;;;;;;;31.80;7.15;;;;;;;13.15;100.00;98833.78;5064188;28;20040;-60
2022/07/17 01:05:59;;;;;;;30.67;7.07;;;;;;;13.00;100.00;98837.84;5062780;28;20655;-59
2022/07/17 01:08:24;;;;;;;35.78;7.90;;;;;;;13.04;100.00;98835.97;5062639;28;20052;-61
2022/07/17 01:10:50;;;;;;;35.33;7.43;;;;;;;13.22;100.00;98830.03;5062726;28;20670;-58
2022/07/17 01:13:16;;;;;;;38.92;8.40;;;;;;;13.26;100.00;98828.13;5062902;28;20024;-59
2022/07/17 01:15:42;;;;;;;27.27;6.85;;;;;;;13.29;100.00;98831.50;5062473;28;20041;-59
2022/07/17 01:18:11;;;;;;;24.52;7.35;;;;;;;13.40;100.00;98833.72;5062302;28;20729;-60
2022/07/17 01:20:38;;;;;;;30.35;7.50;;;;;;;13.21;100.00;98830.91;5061199;28;20651;-58
2022/07/17 01:23:03;;;;;;;27.17;6.93;;;;;;;13.10;100.00;98833.09;5062963;28;20029;-58
2022/07/17 01:25:29;;;;;;;25.15;6.85;;;;;;;12.89;100.00;98834.78;5062562;28;20058;-59
2022/07/17 01:27:54;;;;;;;28.77;7.10;;;;;;;13.23;100.00;98839.59;5062120;28;20580;-59
2022/07/17 01:30:20;;;;;;;31.45;7.53;;;;;;;13.32;100.00;98840.19;5062205;28;20032;-58
2022/07/17 01:32:45;;;;;;;27.42;6.85;;;;;;;13.49;100.00;98845.59;5063339;28;20112;-59
2022/07/17 01:35:13;;;;;;;27.55;7.38;;;;;;;13.26;100.00;98841.22;5061777;28;20028;-60
2022/07/17 01:37:40;;;;;;;30.83;7.63;;;;;;;12.90;100.00;98850.44;5061723;28;20032;-58
2022/07/17 01:40:07;;;;;;;37.78;8.00;;;;;;;13.05;100.00;98849.00;5062261;28;20021;-61
2022/07/17 01:42:32;;;;;;;29.80;7.68;;;;;;;12.88;100.00;98849.63;5062492;28;20036;-61
2022/07/17 01:44:58;;;;;;;25.90;7.15;;;;;;;12.90;100.00;98847.81;5062512;28;20513;-60
2022/07/17 01:47:24;;;;;;;25.38;6.90;;;;;;;12.92;100.00;98845.09;5062498;28;20040;-61
2022/07/17 01:49:54;;;;;;;31.17;7.45;;;;;;;12.80;100.00;98846.44;5061528;28;20028;-59
2022/07/17 01:52:21;;;;;;;27.10;7.15;;;;;;;12.77;100.00;98849.16;5061599;28;20059;-58
2022/07/17 01:54:47;;;;;;;30.45;7.45;;;;;;;13.17;100.00;98850.28;5062386;28;20057;-60
2022/07/17 01:57:13;;;;;;;31.30;7.25;;;;;;;13.12;100.00;98852.22;5060672;28;20123;-60
2022/07/17 01:59:39;;;;;;;25.10;7.25;;;;;;;12.78;100.00;98850.88;5061814;28;20025;-60
2022/07/17 02:02:06;;;;;;;27.45;7.13;;;;;;;12.83;100.00;98846.31;5060585;28;20033;-59
2022/07/17 02:04:33;;;;;;;23.52;6.95;;;;;;;12.57;100.00;98843.78;5062064;28;20082;-60
2022/07/17 02:06:58;;;;;;;29.27;7.47;;;;;;;12.49;100.00;98837.06;5060643;28;20033;-59
2022/07/17 02:09:24;;;;;;;32.13;7.72;;;;;;;12.54;100.00;98848.22;5059667;28;20025;-60
2022/07/17 02:11:50;;;;;;;30.02;7.55;;;;;;;12.46;100.00;98842.41;5050864;28;20047;-58
2022/07/17 02:14:15;;;;;;;28.27;7.32;;;;;;;12.61;100.00;98846.25;5061628;28;20495;-58
2022/07/17 02:16:41;;;;;;;26.73;7.20;;;;;;;12.49;100.00;98839.66;5061023;28;20123;-59
2022/07/17 02:19:06;;;;;;;31.92;7.63;;;;;;;12.28;100.00;98848.28;5061192;28;20024;-59
2022/07/17 02:21:31;;;;;;;28.40;7.80;;;;;;;12.31;100.00;98842.94;5060308;28;20071;-59
2022/07/17 02:23:57;;;;;;;23.90;7.15;;;;;;;12.10;100.00;98832.31;5061466;28;21081;-59
2022/07/17 02:26:22;;;;;;;33.72;7.85;;;;;;;12.05;100.00;98847.28;5060736;28;20127;-59
2022/07/17 02:28:47;;;;;;;25.08;7.28;;;;;;;12.24;100.00;98836.19;5060786;28;20036;-59
2022/07/17 02:31:13;;;;;;;31.98;7.88;;;;;;;12.18;100.00;98833.81;5058503;28;20568;-58
2022/07/17 02:33:38;;;;;;;26.65;7.13;;;;;;;12.32;100.00;98832.41;5061658;28;20021;-59
2022/07/17 02:36:04;;;;;;;32.10;7.57;;;;;;;12.34;100.00;98833.22;5060749;28;20453;-61
2022/07/17 02:38:29;;;;;;;31.23;7.28;;;;;;;12.34;100.00;98829.75;5061043;28;20111;-58
2022/07/17 02:40:55;;;;;;;31.80;7.18;;;;;;;12.53;100.00;98837.81;5059663;28;20115;-60
2022/07/17 02:43:20;;;;;;;30.33;7.22;;;;;;;12.50;100.00;98833.53;5061133;28;20024;-60
2022/07/17 02:45:45;;;;;;;23.33;5.90;;;;;;;12.59;100.00;98826.25;5060430;28;20032;-60
2022/07/17 02:48:11;;;;;;;25.00;6.63;;;;;;;12.81;100.00;98837.69;5060771;28;20028;-61
2022/07/17 02:50:36;;;;;;;25.25;6.50;;;;;;;12.64;100.00;98829.56;5059950;28;20036;-60
2022/07/17 02:53:02;;;;;;;27.30;6.45;;;;;;;12.15;100.00;98838.22;5061323;28;20028;-60
2022/07/17 02:55:27;;;;;;;35.53;7.30;;;;;;;12.02;100.00;98839.56;5060412;28;20028;-60
2022/07/17 02:57:53;;;;;;;19.63;5.57;;;;;;;11.82;100.00;98844.53;5060847;28;20885;-59
2022/07/17 03:00:18;;;;;;;29.25;6.75;;;;;;;11.94;100.00;98849.41;5060262;28;20020;-59
2022/07/17 03:02:45;;;;;;;25.05;6.35;;;;;;;11.95;100.00;98848.50;5060991;28;20443;-56
2022/07/17 03:05:12;;;;;;;28.23;6.28;;;;;;;11.90;100.00;98851.25;5060080;28;20079;-59
2022/07/17 03:07:37;;;;;;;30.85;6.80;;;;;;;11.95;100.00;98853.75;5060144;28;20418;-58
2022/07/17 03:10:04;;;;;;;48.58;8.50;;;;;;;11.68;100.00;98843.22;5059690;28;20666;-58
2022/07/17 03:12:29;;;;;;;22.90;6.18;;;;;;;11.82;100.00;98841.94;5060002;28;20040;-59
2022/07/17 03:14:55;;;;;;;27.00;5.95;;;;;;;11.98;100.00;98834.47;5060908;28;20047;-60
2022/07/17 03:17:20;;;;;;;31.38;6.13;;;;;;;12.06;100.00;98833.31;5059735;28;20401;-58
2022/07/17 03:19:46;;;;;;;30.25;6.18;;;;;;;12.51;100.00;98824.75;5060742;28;20111;-58
2022/07/17 03:22:11;;;;;;;30.15;6.50;;;;;;;11.75;100.00;98839.53;5059289;28;20044;-58
2022/07/17 03:24:37;;;;;;;30.15;6.00;;;;;;;11.74;100.00;98843.06;5060781;28;20078;-58
2022/07/17 03:27:02;;;;;;;29.48;5.75;;;;;;;11.91;100.00;98841.66;5059802;28;20074;-58
2022/07/17 03:29:28;;;;;;;33.97;6.30;;;;;;;12.02;100.00;98839.56;5060096;28;20028;-58
2022/07/17 03:31:53;;;;;;;31.20;6.13;;;;;;;12.14;100.00;98836.50;5059311;28;20164;-59
2022/07/17 03:34:19;;;;;;;32.15;5.78;;;;;;;12.18;100.00;98832.03;5060737;28;20044;-59
2022/07/17 03:36:44;;;;;;;30.85;5.85;;;;;;;12.14;100.00;98846.13;5059776;28;20040;-58
2022/07/17 03:39:09;;;;;;;36.13;6.45;;;;;;;12.12;100.00;98843.56;5059852;28;20020;-58
2022/07/17 03:41:35;;;;;;;28.25;5.47;;;;;;;12.09;100.00;98848.91;5060956;28;20160;-59
2022/07/17 03:44:00;;;;;;;26.52;5.38;;;;;;;11.97;100.00;98849.31;5064535;28;20129;-59
2022/07/17 03:46:27;;;;;;;23.23;4.90;;;;;;;11.91;100.00;98852.13;5064001;28;20522;-59
2022/07/17 03:48:52;;;;;;;28.02;5.53;;;;;;;12.00;100.00;98851.81;5064205;28;20102;-59
2022/07/17 03:51:17;;;;;;;31.45;5.57;;;;;;;12.41;100.00;98848.72;5063173;28;20090;-58
2022/07/17 03:53:43;;;;;;;25.23;5.25;;;;;;;12.42;100.00;98851.25;5064640;28;20054;-59
2022/07/17 03:56:08;;;;;;;24.05;5.22;;;;;;;12.46;100.00;98850.25;5063995;28;20044;-59
2022/07/17 03:58:34;;;;;;;26.55;5.05;;;;;;;12.62;100.00;98853.16;5064147;28;20024;-58
2022/07/17 04:01:00;;;;;;;23.17;5.57;;;;;;;12.30;100.00;98846.47;5063187;28;20041;-59
2022/07/17 04:03:25;;;;;;;25.90;5.22;;;;;;;12.42;100.00;98846.03;5064320;28;20020;-59
2022/07/17 04:05:51;;;;;;;24.13;5.05;;;;;;;12.54;100.00;98845.59;5064526;28;20028;-59
2022/07/17 04:08:18;;;;;;;28.77;5.50;;;;;;;12.74;100.00;98841.44;5061588;28;20108;-60
2022/07/17 04:10:44;;;;;;;24.58;4.97;;;;;;;12.73;100.00;98844.94;5062875;28;20032;-58
2022/07/17 04:13:09;;;;;;;24.40;5.28;;;;;;;12.59;100.00;98847.19;5064507;28;20036;-59
2022/07/17 04:15:52;;;;;;;27.67;5.60;;;;;;;12.51;100.00;98850.94;5063844;28;20025;-59
2022/07/17 04:18:30;;;;;;;23.95;5.18;;;;;;;12.45;100.00;98850.31;5063847;28;20914;-58
2022/07/17 04:20:58;;;;;;;26.52;5.22;;;;;;;12.70;100.00;98850.28;5062909;28;20052;-59
2022/07/17 04:23:23;;;;;;;23.85;5.32;;;;;;;12.72;100.00;98849.34;5064166;28;20027;-58
2022/07/17 04:25:49;;;;;;;23.92;5.10;;;;;;;13.15;100.00;98846.03;5063512;28;20036;-59
2022/07/17 04:28:15;;;;;;;23.73;5.03;;;;;;;13.15;100.00;98846.88;5063703;28;20031;-58
2022/07/17 04:30:41;;;;;;;24.50;5.00;;;;;;;13.29;100.00;98847.22;5062023;28;20044;-58
2022/07/17 04:33:07;;;;;;;23.77;5.03;;;;;;;13.52;100.00;98847.25;5062999;28;20033;-59
2022/07/17 04:35:33;;;;;;;25.05;4.97;;;;;;;13.76;100.00;98841.03;5063121;28;20113;-58
2022/07/17 04:37:58;;;;;;;22.55;4.60;;;;;;;13.69;100.00;98837.81;5063632;28;20070;-60
2022/07/17 04:40:24;;;;;;;19.85;4.55;;;;;;;14.19;100.00;98835.75;5062562;28;20099;-60
2022/07/17 04:42:49;;;;;;;27.65;5.10;;;;;;;14.06;100.00;98831.06;5063647;28;20453;-58
2022/07/17 04:45:15;;;;;;;22.15;4.60;;;;;;;14.47;100.00;98830.19;5063657;28;20048;-59
2022/07/17 04:47:40;;;;;;;26.17;4.80;;;;;;;14.75;100.00;98831.63;5062599;28;20642;-58
2022/07/17 04:50:07;;;;;;;35.92;5.88;;;;;;;14.88;100.00;98839.81;5062344;28;20021;-58
2022/07/17 04:52:32;;;;;;;18.85;4.10;;;;;;;14.82;100.00;98833.06;5061297;28;20048;-59
2022/07/17 04:54:58;;;;;;;27.20;5.00;;;;;;;14.86;100.00;98833.78;5063368;28;20030;-60
2022/07/17 04:57:23;;;;;;;22.83;4.60;;;;;;;13.92;100.00;98828.16;5062614;28;20446;-58
2022/07/17 04:59:49;;;;;;;20.25;4.53;;;;;;;14.11;100.00;98828.22;5064480;28;20017;-58
2022/07/17 05:02:14;;;;;;;22.13;4.18;;;;;;;14.68;100.00;98836.28;5062930;28;20445;-58
2022/07/17 05:04:40;;;;;;;25.40;4.75;;;;;;;15.18;100.00;98841.06;5063434;28;20027;-58
2022/07/17 05:07:05;;;;;;;27.27;5.13;;;;;;;16.35;100.00;98830.09;5062171;28;20068;-58
2022/07/17 05:09:30;;;;;;;18.70;3.97;;;;;;;16.70;100.00;98829.22;5063036;28;20031;-58
2022/07/17 05:11:56;;;;;;;15.63;3.92;;;;;;;17.75;100.00;98829.63;5062182;28;20735;-59
2022/07/17 05:14:21;;;;;;;21.42;4.13;;;;;;;19.99;100.00;98837.97;5063181;28;20019;-58
2022/07/17 05:16:46;;;;;;;21.30;4.13;;;;;;;22.19;77.46;98832.25;5061578;28;20379;-58
2022/07/17 05:19:12;;;;;;;19.20;4.28;;;;;;;21.82;67.07;98837.66;5062818;28;20021;-59
2022/07/17 05:21:38;;;;;;;19.30;3.78;;;;;;;21.56;71.65;98835.13;5062411;28;20043;-58
2022/07/17 05:24:04;;;;;;;14.82;3.40;;;;;;;19.65;75.45;98840.19;5063365;28;20044;-59
2022/07/17 05:26:29;;;;;;;16.92;3.63;;;;;;;20.49;71.08;98833.72;5062399;28;20037;-60
2022/07/17 05:28:55;;;;;;;16.15;3.50;;;;;;;19.23;75.85;98839.34;5062777;28;20438;-60
2022/07/17 05:31:20;;;;;;;16.50;3.58;;;;;;;19.11;83.06;98840.09;5061934;28;20477;-58
2022/07/17 05:33:45;;;;;;;16.73;3.70;;;;;;;19.12;82.51;98836.53;5063145;28;20044;-59
2022/07/17 05:36:11;;;;;;;18.30;3.47;;;;;;;18.80;79.79;98832.25;5062571;28;20115;-59
2022/07/17 05:38:37;;;;;;;17.58;3.58;;;;;;;19.04;74.30;98835.19;5062157;28;20438;-58
2022/07/17 05:41:03;;;;;;;18.92;3.30;;;;;;;20.89;62.81;98830.97;5061175;28;20998;-58
2022/07/17 05:43:28;;;;;;;18.40;3.50;;;;;;;21.35;60.92;98840.97;5062568;28;20556;-59
2022/07/17 05:45:55;;;;;;;17.83;3.30;;;;;;;22.33;54.92;98842.69;5062455;28;20032;-60
2022/07/17 05:48:21;;;;;;;15.95;3.17;;;;;;;24.94;48.15;98851.78;5061963;28;20029;-58
2022/07/17 05:50:46;;;;;;;14.95;3.10;;;;;;;22.54;49.58;98844.69;5061390;28;20317;-60
2022/07/17 05:53:12;;;;;;;18.45;2.97;;;;;;;25.28;44.71;98838.19;5061298;28;20052;-60
2022/07/17 05:55:37;;;;;;;13.77;2.95;;;;;;;28.82;38.65;98836.53;5061669;28;20083;-61
2022/07/17 05:58:03;;;;;;;15.65;3.13;;;;;;;29.15;38.39;98844.78;5066059;28;20032;-61
2022/07/17 06:00:29;;;;;;;18.50;3.15;;;;;;;29.59;35.59;98844.59;5060466;28;20032;-58
2022/07/17 06:02:54;;;;;;;20.75;3.67;;;;;;;28.43;35.95;98843.16;5058775;28;20027;-58
2022/07/17 06:05:19;;;;;;;11.43;2.67;;;;;;;29.14;34.46;98851.16;5062100;28;20029;-60
2022/07/17 06:07:45;;;;;;;13.68;3.00;;;;;;;25.78;38.98;98851.50;5062060;28;20489;-60
2022/07/17 06:10:10;;;;;;;16.65;3.53;;;;;;;29.91;34.18;98848.41;5061154;28;20154;-62
2022/07/17 06:12:36;;;;;;;13.50;2.75;;;;;;;25.47;37.57;98854.25;5062132;28;20058;-61
2022/07/17 06:15:01;;;;;;;12.23;2.85;;;;;;;27.92;37.04;98854.59;5062549;28;20012;-62
2022/07/17 06:17:28;;;;;;;9.98;2.53;;;;;;;31.28;30.98;98852.13;5061146;28;20066;-61
2022/07/17 06:19:53;;;;;;;12.13;2.85;;;;;;;28.32;34.00;98855.97;5061761;28;20077;-59
2022/07/17 06:22:19;;;;;;;13.80;2.63;;;;;;;32.15;30.29;98861.94;5061942;28;20040;-61
2022/07/17 06:24:45;;;;;;;11.35;2.55;;;;;;;33.28;28.27;98860.19;5062109;28;20470;-59
2022/07/17 06:27:10;;;;;;;15.15;3.30;;;;;;;29.12;32.28;98858.53;5060868;28;20098;-59
2022/07/17 06:29:36;;;;;;;9.20;2.50;;;;;;;31.33;30.81;98853.25;5061421;28;20083;-59
2022/07/17 06:32:01;;;;;;;9.25;2.38;;;;;;;30.71;29.60;98856.66;5060100;28;20041;-57
2022/07/17 06:34:27;;;;;;;11.77;2.38;;;;;;;31.56;29.92;98855.22;5062278;28;20486;-60
2022/07/17 06:36:52;;;;;;;9.00;2.58;;;;;;;30.28;31.59;98860.53;5061464;28;20040;-62
2022/07/17 06:39:17;;;;;;;9.20;2.30;;;;;;;31.98;29.58;98864.75;5060085;28;20089;-58
2022/07/17 06:41:43;;;;;;;7.90;2.28;;;;;;;33.50;27.07;98866.50;5060803;28;20071;-57
2022/07/17 06:44:08;;;;;;;11.65;2.75;;;;;;;31.29;30.02;98870.81;5061880;28;20056;-58
2022/07/17 06:46:33;;;;;;;10.38;2.67;;;;;;;31.93;29.34;98875.22;5061280;28;20170;-58
2022/07/17 06:48:59;;;;;;;6.95;2.08;;;;;;;32.82;27.99;98872.81;5061198;28;20044;-59
2022/07/17 06:51:24;;;;;;;7.20;2.42;;;;;;;32.94;27.92;98872.38;5060415;28;20040;-57
2022/07/17 06:53:49;;;;;;;8.35;2.10;;;;;;;34.54;26.45;98871.56;5062075;28;20020;-60
2022/07/17 06:56:15;;;;;;;6.72;2.03;;;;;;;33.84;26.57;98873.13;5061227;28;20036;-60
2022/07/17 06:58:40;;;;;;;6.85;2.13;;;;;;;34.83;26.03;98875.97;5060875;28;20166;-60
2022/07/17 07:01:06;;;;;;;7.80;2.40;;;;;;;33.58;26.46;98874.47;5060133;28;20134;-59
2022/07/17 07:03:31;;;;;;;9.20;2.60;;;;;;;33.07;26.88;98875.28;5060976;28;20097;-60
2022/07/17 07:05:56;;;;;;;8.02;2.28;;;;;;;33.03;27.24;98874.81;5060441;28;20033;-60
2022/07/17 07:08:22;;;;;;;8.25;2.40;;;;;;;36.87;24.08;98876.16;5060237;28;20043;-59
2022/07/17 07:10:47;;;;;;;6.60;2.00;;;;;;;33.21;27.09;98877.16;5059987;28;20072;-60
2022/07/17 07:13:13;;;;;;;7.55;2.20;;;;;;;35.64;25.33;98871.78;5061174;28;20037;-60
2022/07/17 07:15:38;;;;;;;8.27;2.42;;;;;;;35.04;25.52;98861.50;5060533;28;20163;-61
2022/07/17 07:18:04;;;;;;;7.97;1.95;;;;;;;34.09;26.22;98862.78;5060906;28;20815;-59
2022/07/17 07:20:29;;;;;;;6.38;2.30;;;;;;;32.53;27.50;98870.06;5059413;28;20111;-59
2022/07/17 07:22:55;;;;;;;6.93;2.30;;;;;;;35.85;24.87;98871.66;5060981;28;20039;-59
2022/07/17 07:25:21;;;;;;;7.63;2.50;;;;;;;34.68;26.67;98870.63;5061193;28;20099;-58
2022/07/17 07:27:47;;;;;;;5.85;2.33;;;;;;;35.41;25.26;98866.72;5059976;28;20058;-60
2022/07/17 07:30:12;;;;;;;8.85;2.58;;;;;;;33.38;27.16;98871.53;5059904;28;20802;-59
2022/07/17 07:32:39;;;;;;;7.63;2.25;;;;;;;34.42;25.93;98873.13;5061251;28;20036;-61
2022/07/17 07:35:06;;;;;;;7.43;2.22;;;;;;;34.27;26.08;98871.31;5059975;28;20104;-60
2022/07/17 07:37:32;;;;;;;6.43;2.20;;;;;;;34.17;26.67;98870.81;5060933;28;20033;-59
2022/07/17 07:39:57;;;;;;;8.30;2.60;;;;;;;35.78;25.20;98870.81;5060052;28;20403;-61
2022/07/17 07:42:23;;;;;;;6.80;2.28;;;;;;;35.06;25.86;98858.59;5061022;28;20043;-59
2022/07/17 07:44:48;;;;;;;8.00;2.42;;;;;;;37.21;23.77;98866.91;5061106;28;20105;-61
2022/07/17 07:47:14;;;;;;;7.50;2.53;;;;;;;36.03;24.44;98867.53;5059575;28;20083;-61
2022/07/17 07:49:39;;;;;;;6.07;1.85;;;;;;;35.46;25.77;98854.22;5060636;28;20025;-59
2022/07/17 07:52:05;;;;;;;6.53;2.30;;;;;;;32.56;27.82;98856.19;5060045;28;20033;-60
2022/07/17 07:54:31;;;;;;;7.00;2.13;;;;;;;35.90;24.87;98855.63;5060922;28;20039;-60
2022/07/17 07:56:56;;;;;;;5.00;1.90;;;;;;;34.67;26.25;98849.97;5060407;28;20148;-61
2022/07/17 07:59:22;;;;;;;6.70;2.20;;;;;;;34.62;25.68;98849.72;5059716;28;20020;-61
2022/07/17 08:01:47;;;;;;;6.22;2.00;;;;;;;34.82;25.15;98841.75;5059749;28;20056;-61
2022/07/17 08:04:12;;;;;;;9.50;2.30;;;;;;;36.14;23.53;98834.34;5060189;28;20040;-59
2022/07/17 08:06:38;;;;;;;8.15;2.17;;;;;;;36.40;22.94;98838.13;5060214;28;20369;-58
2022/07/17 08:09:04;;;;;;;5.40;2.15;;;;;;;36.43;22.69;98838.56;5059786;28;20482;-59
2022/07/17 08:11:29;;;;;;;7.35;2.08;;;;;;;34.11;24.77;98841.78;5059219;28;20036;-59
2022/07/17 08:13:55;;;;;;;6.10;2.35;;;;;;;34.12;24.90;98838.88;5060103;28;20107;-60
2022/07/17 08:16:20;;;;;;;6.10;2.35;;;;;;;35.47;23.29;98846.91;5059317;28;20047;-59
2022/07/17 08:18:45;;;;;;;6.82;1.90;;;;;;;34.41;23.83;98856.03;5059614;28;20021;-59
2022/07/17 08:21:11;;;;;;;7.78;2.13;;;;;;;36.03;23.43;98860.22;5059042;28;20071;-59
2022/07/17 08:23:37;;;;;;;5.70;2.10;;;;;;;35.41;23.83;98856.69;5060517;28;20685;-58
2022/07/17 08:26:02;;;;;;;6.65;2.03;;;;;;;35.19;24.17;98847.00;5060204;28;20036;-59
2022/07/17 08:28:28;;;;;;;8.82;2.20;;;;;;;35.82;23.34;98858.50;5060987;28;20051;-58
2022/07/17 08:30:53;;;;;;;7.88;2.45;;;;;;;35.94;22.66;98856.03;5063237;28;20040;-59
2022/07/17 08:33:18;;;;;;;7.38;2.20;;;;;;;34.47;24.05;98849.00;5064593;28;20085;-61
2022/07/17 08:35:44;;;;;;;6.40;2.22;;;;;;;32.73;26.68;98849.63;5062963;28;20509;-60
2022/07/17 08:38:09;;;;;;;7.07;1.98;;;;;;;33.78;25.91;98850.41;5063852;28;20032;-60
2022/07/17 08:40:37;;;;;;;8.90;2.50;;;;;;;34.38;25.99;98849.13;5063071;28;20834;-59
2022/07/17 08:43:05;;;;;;;8.35;2.45;;;;;;;35.88;25.68;98863.13;5051183;28;20052;-61
2022/07/17 08:45:31;;;;;;;8.68;2.42;;;;;;;34.38;24.31;98846.41;5063414;28;20040;-60
2022/07/17 08:47:57;;;;;;;9.07;2.22;;;;;;;33.65;24.98;98850.25;5063632;28;20035;-61
2022/07/17 08:50:29;;;;;;;10.20;2.38;;;;;;;36.02;23.44;98857.72;5062268;28;20083;-58
2022/07/17 08:52:55;;;;;;;10.38;2.40;;;;;;;33.71;24.87;98849.47;5064217;28;20449;-59
2022/07/17 08:55:21;;;;;;;8.13;2.45;;;;;;;34.79;24.45;98852.16;5063206;28;20474;-58
2022/07/17 08:57:46;;;;;;;10.35;3.03;;;;;;;34.13;25.14;98847.81;5063567;28;20040;-60
2022/07/17 09:00:15;;;;;;;12.75;2.83;;;;;;;35.79;24.54;98848.06;5061664;28;20020;-59
2022/07/17 09:03:02;;;;;;;7.88;2.40;;;;;;;32.67;28.06;98852.25;5063406;28;20032;-58
2022/07/17 09:05:36;;;;;;;8.43;2.63;;;;;;;34.26;24.60;98848.00;5062418;28;20115;-60
2022/07/17 09:08:03;;;;;;;12.30;2.80;;;;;;;35.54;23.94;98844.22;5062873;28;20811;-59
2022/07/17 09:10:35;;;;;;;14.05;2.88;;;;;;;33.88;26.27;98837.41;5061210;28;20067;-58
2022/07/17 09:13:01;;;;;;;10.20;2.70;;;;;;;32.39;26.96;98839.31;5063033;28;20029;-58
2022/07/17 09:15:27;;;;;;;9.65;2.22;;;;;;;34.37;24.10;98839.34;5062907;28;20037;-58
2022/07/17 09:17:56;;;;;;;8.18;2.35;;;;;;;36.16;22.67;98836.84;5062510;28;20020;-58
2022/07/17 09:20:22;;;;;;;11.05;2.75;;;;;;;36.52;22.22;98824.75;5059960;28;20052;-58
2022/07/17 09:22:58;;;;;;;7.78;2.30;;;;;;;35.67;22.92;98823.38;5059196;28;20024;-58
2022/07/17 09:25:42;;;;;;;9.63;2.30;;;;;;;34.06;24.22;98831.53;5061657;28;20090;-58
2022/07/17 09:28:10;;;;;;;7.55;2.22;;;;;;;34.92;24.34;98819.72;5062587;28;20036;-58
2022/07/17 09:30:42;;;;;;;8.02;2.45;;;;;;;33.26;24.73;98819.00;5060483;28;20040;-57
2022/07/17 09:33:29;;;;;;;9.43;2.65;;;;;;;33.73;24.68;98820.38;5062161;28;20051;-59
2022/07/17 09:36:08;;;;;;;9.00;2.28;;;;;;;33.35;25.01;98828.66;5061840;28;20418;-60
2022/07/17 09:38:38;;;;;;;9.65;2.40;;;;;;;33.89;24.00;98819.28;5059412;28;20070;-61
2022/07/17 09:41:15;;;;;;;8.13;2.30;;;;;;;33.21;24.47;98823.09;5059359;28;20047;-60
2022/07/17 09:44:01;;;;;;;12.40;2.88;;;;;;;33.03;24.63;98809.09;5062126;28;20059;-60
2022/07/17 09:46:27;;;;;;;10.63;2.70;;;;;;;32.78;25.80;98812.09;5061337;28;20032;-59
2022/07/17 09:48:55;;;;;;;11.20;2.35;;;;;;;33.80;24.54;98815.88;5062115;28;20025;-59
2022/07/17 09:51:21;;;;;;;9.50;2.50;;;;;;;33.48;25.54;98806.34;5060537;28;20494;-60
2022/07/17 09:53:49;;;;;;;9.02;2.50;;;;;;;34.28;24.92;98813.44;5062420;28;20032;-59
2022/07/17 09:56:20;;;;;;;8.68;2.47;;;;;;;34.68;23.66;98808.31;5059505;28;20048;-59
2022/07/17 09:58:47;;;;;;;;;;;;;;;33.23;24.36;98812.94;5062440;28;20024;-59
2022/07/17 10:01:15;;;;;;;8.10;2.47;;;;;;;33.65;24.92;98806.97;5060410;28;19923;-58
2022/07/17 10:03:41;;;;;;;9.27;2.50;;;;;;;34.47;23.42;98809.19;5062849;28;20461;-58
2022/07/17 10:06:08;;;;;;;9.00;2.33;;;;;;;32.10;24.87;98815.78;5061778;28;20772;-59
2022/07/17 10:08:35;;;;;;;11.52;2.80;;;;;;;34.87;23.35;98816.75;5059524;28;20027;-58
2022/07/17 10:11:00;;;;;;;11.20;2.42;;;;;;;34.03;23.66;98809.44;5060707;28;20746;-58
2022/07/17 10:13:27;;;;;;;7.15;2.00;;;;;;;32.83;24.71;98814.25;5061866;28;20032;-58
2022/07/17 10:15:52;;;;;;;10.20;2.50;;;;;;;35.02;22.97;98808.53;5061656;28;20029;-58
2022/07/17 10:18:21;;;;;;;9.80;2.70;;;;;;;36.22;21.97;98814.31;5050462;28;20028;-58
2022/07/17 10:20:46;;;;;;;8.55;2.45;;;;;;;33.80;23.44;98799.63;5059991;28;20036;-58
2022/07/17 10:23:13;;;;;;;9.77;2.40;;;;;;;32.03;24.66;98799.47;5061360;28;20484;-59
2022/07/17 10:25:39;;;;;;;10.02;2.60;;;;;;;35.33;22.67;98800.75;5058466;28;20036;-59
2022/07/17 10:28:04;;;;;;;8.65;2.40;;;;;;;34.75;23.55;98803.78;5059698;28;20027;-59
2022/07/17 10:30:31;;;;;;;10.65;2.50;;;;;;;33.40;25.97;98800.03;5060486;28;20053;-58
2022/07/17 10:32:59;;;;;;;11.73;3.08;;;;;;;33.31;24.44;98793.06;5058232;28;20016;-59
2022/07/17 10:35:26;;;;;;;8.60;2.17;;;;;;;33.37;24.13;98795.00;5058153;28;20514;-60
2022/07/17 10:37:52;;;;;;;12.27;3.17;;;;;;;32.98;24.66;98796.16;5060107;28;20020;-59
2022/07/17 10:40:22;;;;;;;8.43;2.42;;;;;;;34.30;25.26;98792.41;5058014;28;20032;-61
2022/07/17 10:42:52;;;;;;;9.60;2.30;;;;;;;33.82;26.08;98791.31;5060993;28;20033;-58
2022/07/17 10:45:39;;;;;;;8.25;2.25;;;;;;;33.55;26.05;98786.47;5060875;28;20078;-59
2022/07/17 10:48:07;;;;;;;8.85;2.50;;;;;;;32.55;25.96;98792.41;5060664;28;20032;-59
2022/07/17 10:50:36;;;;;;;9.27;2.63;;;;;;;33.48;24.84;98790.13;5058928;28;20038;-58
2022/07/17 10:53:06;;;;;;;9.25;2.50;;;;;;;34.17;23.54;98795.03;5055206;28;20031;-59
2022/07/17 10:55:32;;;;;;;11.70;2.80;;;;;;;32.77;25.72;98799.63;5057170;28;20040;-59
2022/07/17 10:57:58;;;;;;;12.50;2.65;;;;;;;34.84;24.73;98801.75;5058428;28;20051;-59
2022/07/17 11:00:24;;;;;;;12.73;2.80;;;;;;;31.43;26.67;98803.69;5059115;28;20123;-59
2022/07/17 11:02:50;;;;;;;11.45;2.65;;;;;;;30.67;27.36;98792.53;5060461;28;20306;-60
2022/07/17 11:05:17;;;;;;;19.25;3.92;;;;;;;32.23;25.50;98794.41;5048501;28;20097;-57
2022/07/17 11:08:09;;;;;;;12.82;2.97;;;;;;;32.05;26.79;98795.56;5056691;28;20027;-58
2022/07/17 11:10:36;;;;;;;13.40;2.75;;;;;;;33.34;24.91;98795.41;5055266;28;20127;-58
2022/07/17 11:13:10;;;;;;;18.45;3.50;;;;;;;33.34;25.64;98790.00;5057544;28;20029;-62
2022/07/17 11:15:40;;;;;;;22.23;3.42;;;;;;;31.17;26.67;98796.75;5055842;28;20048;-61
2022/07/17 11:18:11;;;;;;;16.10;3.38;;;;;;;33.31;26.49;98784.13;5057349;28;20900;-62
2022/07/17 11:20:59;;;;;;;10.32;2.67;;;;;;;33.13;24.91;98788.06;5054781;28;20037;-60